Cason J. Callaway — WDH7556 — position and weather

sailwx.info

Track history (hours):
 
Tides and Currents Weather Stations Pressure Air Temp Water Temp Dewpoint Dewpoint Depression Visibility Wind Speed Wind Dir Waves Ship Positions

Cason J. Callaway

Owner: Great Lakes Fleet, Inc., Homewood, IL. More information available from US FCC via Universal Licensing System and Coast Guard Vessel Documentation Center.

Last reported at 2018-Jan-16 07:00 UTC. Time now 2018-Feb-23 12:32 UTC.
Position N 43°48' W 087°06'.
Warning: this ship's position is 38 days out of date.

Length 240 m; draft 7.7 m.

Type: Cargo ship. MMSI: 366971340.

Wind from 050 at 16 knots

Barometer 1027.7 mb
Air temperature -6.6 ° C
Visibility: greater than 27.0 NM

Date/timePositionNaut miles runAvg speedWind from/ knotsBaromVisibWave heightAir tempDewpointWater temp
2018-Jan-16 07:00N 43°48' W 087°06'126 3.4 050 / 161027.727.0 -6.6
2018-Jan-14 18:00N 41°42' W 087°18'6 6.0 210 / 141038.627.0 -9.4
2018-Jan-14 17:00N 41°48' W 087°18'80 8.0 200 / 141039.227.0 -9.9
2018-Jan-14 07:00N 43°06' W 087°42'18 9.0 270 / 51039.627.0 -12.2
2018-Jan-14 05:00N 43°24' W 087°42'3115.6 290 / 71039.927.0 -12.7
2018-Jan-14 03:00N 43°54' W 087°30'134 3.5 300 / 101037.927.0 -12.7-22.2-11.6
2018-Jan-12 13:00N 45°54' W 086°06'13 1.3 010 / 261020.627.0 -10.5-18.8-8.3
2018-Jan-12 02:18N 45°53' W 085°47'311.3
2018-Jan-12 02:00N 45°53' W 085°42'711.4
2018-Jan-12 01:26N 45°54' W 085°33'512.0
2018-Jan-12 01:00N 45°53' W 085°25'611.3
2018-Jan-12 00:30N 45°53' W 085°17'611.7
2018-Jan-12 00:00N 45°52' W 085°09'611.1
2018-Jan-11 23:30N 45°51' W 085°01'611.2
2018-Jan-11 23:00N 45°50' W 084°53'612.3
2018-Jan-11 22:30N 45°49' W 084°44'3 7.0
2018-Jan-11 22:00N 45°50' W 084°39'2 4.4
2018-Jan-11 21:30N 45°51' W 084°37'2 4.0
2018-Jan-11 21:00N 45°51' W 084°34'510.9
2018-Jan-11 20:30N 45°52' W 084°26'611.8
2018-Jan-11 20:00N 45°54' W 084°18'73 6.1 260 / 51003.3 0.5 6.1
2018-Jan-11 08:00N 46°54' W 085°18'2110.7 200 / 91003.7 2.2 2.7
2018-Jan-11 06:00N 47°00' W 085°48'14912.4 200 / 161003.3 5.4 2.7
2018-Jan-10 18:00N 47°24' W 089°24'9412.7 220 / 161001.010.8 2.7
2018-Jan-10 10:38N 46°52' W 091°34'212.9
2018-Jan-10 10:30N 46°52' W 091°36'612.9
2018-Jan-10 10:00N 46°49' W 091°44'612.8
2018-Jan-10 09:30N 46°46' W 091°53'611.7
2018-Jan-10 09:00N 46°43' W 091°60'1 2.3
2018-Jan-10 08:29N 46°42' W 092°01'0 0.2
2018-Jan-10 07:57N 46°42' W 092°01'0 0.0
2018-Jan-10 07:09N 46°42' W 092°01'0 0.0
2018-Jan-10 06:54N 46°42' W 092°01'0 0.0
2018-Jan-10 06:30N 46°42' W 092°01'0 0.0
2018-Jan-10 06:00N 46°42' W 092°01'0 0.0
2018-Jan-10 05:27N 46°42' W 092°01'0 0.0
2018-Jan-10 04:57N 46°42' W 092°01'0 0.0
2018-Jan-10 04:27N 46°42' W 092°01'0 0.0
2018-Jan-10 04:00N 46°42' W 092°01'0 0.0
2018-Jan-10 03:27N 46°42' W 092°01'0 0.0
2018-Jan-10 02:57N 46°42' W 092°01'0 0.0
2018-Jan-10 02:30N 46°42' W 092°01'0 0.0
2018-Jan-10 01:48N 46°42' W 092°01'0 0.0
2018-Jan-10 01:30N 46°42' W 092°01'0 0.0
2018-Jan-10 00:51N 46°42' W 092°01'0 0.0
2018-Jan-10 00:30N 46°42' W 092°01'0 0.0
2018-Jan-10 00:00N 46°42' W 092°01'0 0.0
2018-Jan-09 23:30N 46°42' W 092°01'0 0.0
2018-Jan-09 22:51N 46°42' W 092°01'0 0.0
2018-Jan-09 22:21N 46°42' W 092°01'0 0.0
2018-Jan-09 21:51N 46°42' W 092°01'0 1.3
2018-Jan-09 21:30N 46°42' W 092°01'2 3.8
2018-Jan-09 21:00N 46°44' W 091°59'3 6.1
2018-Jan-09 20:30N 46°47' W 091°59'0 0.6
2018-Jan-09 19:59N 46°47' W 091°59'0 0.0
2018-Jan-09 19:29N 46°47' W 091°59'1 2.7
2018-Jan-09 19:00N 46°48' W 092°00'1548.0 070 / 131018.227.0 -1.6
2018-Jan-09 18:59N 46°47' W 091°59'0 0.0
2018-Jan-09 18:29N 46°47' W 091°59'0 0.0
2018-Jan-09 17:59N 46°47' W 091°59'0 0.0
2018-Jan-09 17:29N 46°47' W 091°59'1 2.7
2018-Jan-09 17:00N 46°48' W 092°00'1492.4 080 / 121020.627.0 -3.8
2018-Jan-09 16:59N 46°47' W 091°59'0 0.0
2018-Jan-09 16:29N 46°47' W 091°59'611.9
2018-Jan-09 16:00N 46°42' W 091°54'62128.5 110 / 121022.010.8 -3.8
2018-Jan-09 15:59N 46°47' W 091°59'0 0.0
2018-Jan-09 15:29N 46°47' W 091°59'0 0.0
2018-Jan-09 14:59N 46°47' W 091°59'0 0.0
2018-Jan-09 14:29N 46°47' W 091°59'0 0.0
2018-Jan-09 13:56N 46°47' W 091°59'0 0.0
2018-Jan-09 13:29N 46°47' W 091°59'0 0.0
2018-Jan-09 12:59N 46°47' W 091°59'0 0.0
2018-Jan-09 12:29N 46°47' W 091°59'0 0.0
2018-Jan-09 11:59N 46°47' W 091°59'0 0.0
2018-Jan-09 11:29N 46°47' W 091°59'0 0.0
2018-Jan-09 10:59N 46°47' W 091°59'0 0.0
2018-Jan-09 10:29N 46°47' W 091°59'0 0.0
2018-Jan-09 09:59N 46°47' W 091°59'0 0.0
2018-Jan-09 09:29N 46°47' W 091°59'0 0.0
2018-Jan-09 08:59N 46°47' W 091°59'0 0.0
2018-Jan-09 08:29N 46°47' W 091°59'0 0.0
2018-Jan-09 07:59N 46°47' W 091°59'0 0.0
2018-Jan-09 07:29N 46°47' W 091°59'0 0.0
2018-Jan-09 06:59N 46°47' W 091°59'0 0.0
2018-Jan-09 06:29N 46°47' W 091°59'0 0.0
2018-Jan-09 05:59N 46°47' W 091°59'0 0.0
2018-Jan-09 05:29N 46°47' W 091°59'1 2.8
2018-Jan-09 05:00N 46°48' W 092°00'1417.3 350 / 71019.627.0 -2.7
2018-Jan-09 04:59N 46°47' W 091°59'0 0.0
2018-Jan-09 04:20N 46°47' W 091°59'0 0.0
2018-Jan-09 03:59N 46°47' W 091°59'0 0.0
2018-Jan-09 03:29N 46°47' W 091°59'0 0.0
2018-Jan-09 02:59N 46°47' W 091°59'0 0.0
2018-Jan-09 02:23N 46°47' W 091°59'0 0.0
2018-Jan-09 01:53N 46°47' W 091°59'0 0.0
2018-Jan-09 01:29N 46°47' W 091°59'0 0.0
2018-Jan-09 00:59N 46°47' W 091°59'0 0.0
2018-Jan-09 00:29N 46°47' W 091°59'0 0.0
2018-Jan-08 23:59N 46°47' W 091°59'0 0.0
2018-Jan-08 23:29N 46°47' W 091°59'0 0.0
2018-Jan-08 22:59N 46°47' W 091°59'0 0.0
2018-Jan-08 22:29N 46°47' W 091°59'0 0.0
2018-Jan-08 21:56N 46°47' W 091°59'0 0.0
2018-Jan-08 21:29N 46°47' W 091°59'0 0.0
2018-Jan-08 20:59N 46°47' W 091°59'0 0.0
2018-Jan-08 20:29N 46°47' W 091°59'0 0.0
2018-Jan-08 19:59N 46°47' W 091°59'0 0.0
2018-Jan-08 19:29N 46°47' W 091°59'0 0.0
2018-Jan-08 18:59N 46°47' W 091°59'0 0.0
2018-Jan-08 18:29N 46°47' W 091°59'0 0.0
2018-Jan-08 17:59N 46°47' W 091°59'0 0.0
2018-Jan-08 17:29N 46°47' W 091°59'0 0.0
2018-Jan-08 16:59N 46°47' W 091°59'0 0.0
2018-Jan-08 16:29N 46°47' W 091°59'0 0.0
2018-Jan-08 15:59N 46°47' W 091°59'0 0.0
2018-Jan-08 15:29N 46°47' W 091°59'1 2.8
2018-Jan-08 15:00N 46°48' W 092°00'1412.1 250 / 141010.827.0 -1.6
2018-Jan-08 14:59N 46°47' W 091°59'0 0.0
2018-Jan-08 14:29N 46°47' W 091°59'0 0.0
2018-Jan-08 13:59N 46°47' W 091°59'0 0.0
2018-Jan-08 13:29N 46°47' W 091°59'1 2.8
2018-Jan-08 13:00N 46°48' W 092°00'113.2 250 / 181008.427.0 -2.2
2018-Jan-08 12:53N 46°47' W 091°59'0 0.0
2018-Jan-08 12:26N 46°47' W 091°59'0 0.0
2018-Jan-08 11:59N 46°47' W 091°59'0 0.0
2018-Jan-08 11:29N 46°47' W 091°59'0 0.0
2018-Jan-08 10:59N 46°47' W 091°59'0 0.0
2018-Jan-08 10:29N 46°47' W 091°59'0 0.0
2018-Jan-08 09:53N 46°47' W 091°59'0 0.0
2018-Jan-08 09:29N 46°47' W 091°59'0 0.0
2018-Jan-08 08:59N 46°47' W 091°59'0 0.0
2018-Jan-08 08:26N 46°47' W 091°59'0 0.0
2018-Jan-08 07:56N 46°47' W 091°59'0 0.0
2018-Jan-08 07:29N 46°47' W 091°59'0 0.0
2018-Jan-08 06:59N 46°47' W 091°59'0 0.0
2018-Jan-08 06:29N 46°47' W 091°59'0 0.0
2018-Jan-08 05:59N 46°47' W 091°59'0 0.0
2018-Jan-08 05:29N 46°47' W 091°59'0 0.0
2018-Jan-08 04:59N 46°47' W 091°59'0 0.0
2018-Jan-08 04:26N 46°47' W 091°59'0 0.0
2018-Jan-08 03:59N 46°47' W 091°59'0 0.0
2018-Jan-08 03:29N 46°47' W 091°59'1 2.8
2018-Jan-08 03:00N 46°48' W 092°00'1351.4 240 / 131007.410.8 -1.6
2018-Jan-08 02:59N 46°47' W 091°59'0 0.0
2018-Jan-08 02:29N 46°47' W 091°59'0 0.0
2018-Jan-08 01:59N 46°47' W 091°59'0 0.0
2018-Jan-08 01:29N 46°47' W 091°59'1 2.7
2018-Jan-08 01:00N 46°48' W 092°00'1352.5 240 / 141007.410.8 -1.6
2018-Jan-08 00:59N 46°47' W 091°59'0 0.0
2018-Jan-08 00:23N 46°47' W 091°59'0 0.0
2018-Jan-07 23:53N 46°47' W 091°59'0 0.0
2018-Jan-07 23:29N 46°47' W 091°59'0 0.0
2018-Jan-07 22:59N 46°47' W 091°59'0 0.0
2018-Jan-07 22:29N 46°47' W 091°59'0 0.0
2018-Jan-07 21:59N 46°47' W 091°59'0 0.0
2018-Jan-07 21:29N 46°47' W 091°59'0 0.0
2018-Jan-07 20:59N 46°47' W 091°59'0 0.0
2018-Jan-07 20:23N 46°47' W 091°59'0 0.0
2018-Jan-07 19:50N 46°47' W 091°59'0 0.0
2018-Jan-07 19:29N 46°47' W 091°59'0 0.0
2018-Jan-07 18:59N 46°47' W 091°59'0 0.0
2018-Jan-07 18:29N 46°47' W 091°59'0 0.0
2018-Jan-07 17:56N 46°47' W 091°59'0 0.0
2018-Jan-07 17:29N 46°47' W 091°59'0 0.0
2018-Jan-07 16:59N 46°47' W 091°59'0 0.0
2018-Jan-07 16:29N 46°47' W 091°59'0 0.0
2018-Jan-07 15:59N 46°47' W 091°59'0 0.0
2018-Jan-07 15:29N 46°47' W 091°59'1 2.8
2018-Jan-07 15:00N 46°48' W 092°00'1222.4 240 / 181009.110.8 -8.8
2018-Jan-07 14:59N 46°47' W 091°59'0 0.0
2018-Jan-07 14:29N 46°47' W 091°59'0 0.0
2018-Jan-07 13:59N 46°47' W 091°59'0 0.0
2018-Jan-07 13:29N 46°47' W 091°59'0 0.0
2018-Jan-07 12:59N 46°47' W 091°59'0 0.0
2018-Jan-07 12:29N 46°47' W 091°59'0 0.0
2018-Jan-07 11:59N 46°47' W 091°59'0 0.0
2018-Jan-07 11:29N 46°47' W 091°59'0 0.0
2018-Jan-07 10:59N 46°47' W 091°59'0 0.0
2018-Jan-07 10:29N 46°47' W 091°59'0 0.1
2018-Jan-07 09:59N 46°47' W 091°59'0 0.0
2018-Jan-07 09:29N 46°47' W 091°59'0 0.1
2018-Jan-07 08:59N 46°47' W 091°59'0 0.0
2018-Jan-07 08:29N 46°47' W 091°59'0 0.0
2018-Jan-07 07:59N 46°47' W 091°59'0 0.0
2018-Jan-07 07:26N 46°47' W 091°59'0 0.0
2018-Jan-07 06:59N 46°47' W 091°59'0 0.0
2018-Jan-07 06:29N 46°47' W 091°59'0 0.0
2018-Jan-07 05:53N 46°47' W 091°59'0 0.0
2018-Jan-07 05:23N 46°47' W 091°59'0 0.0
2018-Jan-07 04:53N 46°47' W 091°59'0 0.0
2018-Jan-07 04:23N 46°47' W 091°59'0 0.0
2018-Jan-07 03:59N 46°47' W 091°59'0 0.0
2018-Jan-07 03:23N 46°47' W 091°59'1 3.4
2018-Jan-07 03:00N 46°48' W 092°00'123.6 220 / 261017.627.0 -10.5
2018-Jan-07 02:56N 46°47' W 091°59'0 0.0
2018-Jan-07 02:29N 46°47' W 091°59'0 0.0
2018-Jan-07 01:56N 46°47' W 091°59'1 1.5
2018-Jan-07 01:30N 46°47' W 091°58'3 3.4
2018-Jan-07 00:30N 46°49' W 091°54'0 0.6
2018-Jan-07 00:00N 46°49' W 091°54'0 0.6
2018-Jan-06 23:30N 46°49' W 091°54'0 0.2
2018-Jan-06 23:00N 46°48' W 091°54'0 0.0
2018-Jan-06 22:21N 46°48' W 091°54'0 0.0
2018-Jan-06 21:51N 46°48' W 091°54'0 0.0
2018-Jan-06 21:18N 46°48' W 091°54'0 0.0
2018-Jan-06 20:51N 46°48' W 091°54'0 0.0
2018-Jan-06 20:24N 46°48' W 091°54'0 0.1
2018-Jan-06 19:54N 46°48' W 091°54'0 0.1
2018-Jan-06 19:24N 46°48' W 091°54'0 0.0
2018-Jan-06 18:54N 46°48' W 091°54'0 0.0
2018-Jan-06 18:21N 46°48' W 091°54'0 0.8
2018-Jan-06 18:00N 46°49' W 091°54'2 3.9
2018-Jan-06 17:26N 46°46' W 091°55'0 0.4
2018-Jan-06 16:59N 46°46' W 091°55'0 0.3
2018-Jan-06 16:29N 46°46' W 091°55'0 0.4
2018-Jan-06 15:59N 46°46' W 091°55'0 0.2
2018-Jan-06 15:29N 46°46' W 091°55'4 8.3
2018-Jan-06 15:00N 46°42' W 091°54'4386.8 230 / 91035.810.8 -19.4
2018-Jan-06 14:59N 46°46' W 091°55'0 0.3
2018-Jan-06 14:29N 46°46' W 091°56'0 0.3
2018-Jan-06 13:59N 46°46' W 091°56'0 0.3
2018-Jan-06 13:29N 46°46' W 091°56'0 0.3
2018-Jan-06 12:59N 46°45' W 091°56'0 0.3
2018-Jan-06 12:29N 46°45' W 091°56'0 0.3
2018-Jan-06 11:53N 46°45' W 091°57'0 0.3
2018-Jan-06 11:29N 46°45' W 091°57'0 0.3
2018-Jan-06 10:59N 46°45' W 091°57'0 0.3
2018-Jan-06 10:29N 46°45' W 091°57'0 0.3
2018-Jan-06 09:59N 46°45' W 091°57'0 0.3
2018-Jan-06 09:26N 46°45' W 091°57'0 0.2
2018-Jan-06 08:59N 46°45' W 091°57'0 0.1
2018-Jan-06 08:26N 46°45' W 091°57'0 0.1
2018-Jan-06 07:59N 46°45' W 091°57'0 0.1
2018-Jan-06 07:26N 46°45' W 091°58'  
Track history (hours):
 
Tides and Currents Weather Stations Pressure Air Temp Water Temp Dewpoint Dewpoint Depression Visibility Wind Speed Wind Dir Waves Ship Positions

Cason J. Callaway

Owner: Great Lakes Fleet, Inc., Homewood, IL. More information available from US FCC via Universal Licensing System and Coast Guard Vessel Documentation Center.

Last reported at 2018-Jan-16 07:00 UTC. Time now 2018-Feb-23 12:32 UTC.
Position N 43°48' W 087°06'.
Warning: this ship's position is 38 days out of date.

Length 240 m; draft 7.7 m.

Type: Cargo ship. MMSI: 366971340.

Wind from 050 at 16 knots

Barometer 1027.7 mb
Air temperature -6.6 ° C
Visibility: greater than 27.0 NM

Date/timePositionNaut miles runAvg speedWind from/ knotsBaromVisibWave heightAir tempDewpointWater temp
2018-Jan-16 07:00N 43°48' W 087°06'126 3.4 050 / 161027.727.0 -6.6
2018-Jan-14 18:00N 41°42' W 087°18'6 6.0 210 / 141038.627.0 -9.4
2018-Jan-14 17:00N 41°48' W 087°18'80 8.0 200 / 141039.227.0 -9.9
2018-Jan-14 07:00N 43°06' W 087°42'18 9.0 270 / 51039.627.0 -12.2
2018-Jan-14 05:00N 43°24' W 087°42'3115.6 290 / 71039.927.0 -12.7
2018-Jan-14 03:00N 43°54' W 087°30'134 3.5 300 / 101037.927.0 -12.7-22.2-11.6
2018-Jan-12 13:00N 45°54' W 086°06'13 1.3 010 / 261020.627.0 -10.5-18.8-8.3
2018-Jan-12 02:18N 45°53' W 085°47'311.3
2018-Jan-12 02:00N 45°53' W 085°42'711.4
2018-Jan-12 01:26N 45°54' W 085°33'512.0
2018-Jan-12 01:00N 45°53' W 085°25'611.3
2018-Jan-12 00:30N 45°53' W 085°17'611.7
2018-Jan-12 00:00N 45°52' W 085°09'611.1
2018-Jan-11 23:30N 45°51' W 085°01'611.2
2018-Jan-11 23:00N 45°50' W 084°53'612.3
2018-Jan-11 22:30N 45°49' W 084°44'3 7.0
2018-Jan-11 22:00N 45°50' W 084°39'2 4.4
2018-Jan-11 21:30N 45°51' W 084°37'2 4.0
2018-Jan-11 21:00N 45°51' W 084°34'510.9
2018-Jan-11 20:30N 45°52' W 084°26'611.8
2018-Jan-11 20:00N 45°54' W 084°18'73 6.1 260 / 51003.3 0.5 6.1
2018-Jan-11 08:00N 46°54' W 085°18'2110.7 200 / 91003.7 2.2 2.7
2018-Jan-11 06:00N 47°00' W 085°48'14912.4 200 / 161003.3 5.4 2.7
2018-Jan-10 18:00N 47°24' W 089°24'9412.7 220 / 161001.010.8 2.7
2018-Jan-10 10:38N 46°52' W 091°34'212.9
2018-Jan-10 10:30N 46°52' W 091°36'612.9
2018-Jan-10 10:00N 46°49' W 091°44'612.8
2018-Jan-10 09:30N 46°46' W 091°53'611.7
2018-Jan-10 09:00N 46°43' W 091°60'1 2.3
2018-Jan-10 08:29N 46°42' W 092°01'0 0.2
2018-Jan-10 07:57N 46°42' W 092°01'0 0.0
2018-Jan-10 07:09N 46°42' W 092°01'0 0.0
2018-Jan-10 06:54N 46°42' W 092°01'0 0.0
2018-Jan-10 06:30N 46°42' W 092°01'0 0.0
2018-Jan-10 06:00N 46°42' W 092°01'0 0.0
2018-Jan-10 05:27N 46°42' W 092°01'0 0.0
2018-Jan-10 04:57N 46°42' W 092°01'0 0.0
2018-Jan-10 04:27N 46°42' W 092°01'0 0.0
2018-Jan-10 04:00N 46°42' W 092°01'0 0.0
2018-Jan-10 03:27N 46°42' W 092°01'0 0.0
2018-Jan-10 02:57N 46°42' W 092°01'0 0.0
2018-Jan-10 02:30N 46°42' W 092°01'0 0.0
2018-Jan-10 01:48N 46°42' W 092°01'0 0.0
2018-Jan-10 01:30N 46°42' W 092°01'0 0.0
2018-Jan-10 00:51N 46°42' W 092°01'0 0.0
2018-Jan-10 00:30N 46°42' W 092°01'0 0.0
2018-Jan-10 00:00N 46°42' W 092°01'0 0.0
2018-Jan-09 23:30N 46°42' W 092°01'0 0.0
2018-Jan-09 22:51N 46°42' W 092°01'0 0.0
2018-Jan-09 22:21N 46°42' W 092°01'0 0.0
2018-Jan-09 21:51N 46°42' W 092°01'0 1.3
2018-Jan-09 21:30N 46°42' W 092°01'2 3.8
2018-Jan-09 21:00N 46°44' W 091°59'3 6.1
2018-Jan-09 20:30N 46°47' W 091°59'0 0.6
2018-Jan-09 19:59N 46°47' W 091°59'0 0.0
2018-Jan-09 19:29N 46°47' W 091°59'1 2.7
2018-Jan-09 19:00N 46°48' W 092°00'1548.0 070 / 131018.227.0 -1.6
2018-Jan-09 18:59N 46°47' W 091°59'0 0.0
2018-Jan-09 18:29N 46°47' W 091°59'0 0.0
2018-Jan-09 17:59N 46°47' W 091°59'0 0.0
2018-Jan-09 17:29N 46°47' W 091°59'1 2.7
2018-Jan-09 17:00N 46°48' W 092°00'1492.4 080 / 121020.627.0 -3.8
2018-Jan-09 16:59N 46°47' W 091°59'0 0.0
2018-Jan-09 16:29N 46°47' W 091°59'611.9
2018-Jan-09 16:00N 46°42' W 091°54'62128.5 110 / 121022.010.8 -3.8
2018-Jan-09 15:59N 46°47' W 091°59'0 0.0
2018-Jan-09 15:29N 46°47' W 091°59'0 0.0
2018-Jan-09 14:59N 46°47' W 091°59'0 0.0
2018-Jan-09 14:29N 46°47' W 091°59'0 0.0
2018-Jan-09 13:56N 46°47' W 091°59'0 0.0
2018-Jan-09 13:29N 46°47' W 091°59'0 0.0
2018-Jan-09 12:59N 46°47' W 091°59'0 0.0
2018-Jan-09 12:29N 46°47' W 091°59'0 0.0
2018-Jan-09 11:59N 46°47' W 091°59'0 0.0
2018-Jan-09 11:29N 46°47' W 091°59'0 0.0
2018-Jan-09 10:59N 46°47' W 091°59'0 0.0
2018-Jan-09 10:29N 46°47' W 091°59'0 0.0
2018-Jan-09 09:59N 46°47' W 091°59'0 0.0
2018-Jan-09 09:29N 46°47' W 091°59'0 0.0
2018-Jan-09 08:59N 46°47' W 091°59'0 0.0
2018-Jan-09 08:29N 46°47' W 091°59'0 0.0
2018-Jan-09 07:59N 46°47' W 091°59'0 0.0
2018-Jan-09 07:29N 46°47' W 091°59'0 0.0
2018-Jan-09 06:59N 46°47' W 091°59'0 0.0
2018-Jan-09 06:29N 46°47' W 091°59'0 0.0
2018-Jan-09 05:59N 46°47' W 091°59'0 0.0
2018-Jan-09 05:29N 46°47' W 091°59'1 2.8
2018-Jan-09 05:00N 46°48' W 092°00'1417.3 350 / 71019.627.0 -2.7
2018-Jan-09 04:59N 46°47' W 091°59'0 0.0
2018-Jan-09 04:20N 46°47' W 091°59'0 0.0
2018-Jan-09 03:59N 46°47' W 091°59'0 0.0
2018-Jan-09 03:29N 46°47' W 091°59'0 0.0
2018-Jan-09 02:59N 46°47' W 091°59'0 0.0
2018-Jan-09 02:23N 46°47' W 091°59'0 0.0
2018-Jan-09 01:53N 46°47' W 091°59'0 0.0
2018-Jan-09 01:29N 46°47' W 091°59'0 0.0
2018-Jan-09 00:59N 46°47' W 091°59'0 0.0
2018-Jan-09 00:29N 46°47' W 091°59'0 0.0
2018-Jan-08 23:59N 46°47' W 091°59'0 0.0
2018-Jan-08 23:29N 46°47' W 091°59'0 0.0
2018-Jan-08 22:59N 46°47' W 091°59'0 0.0
2018-Jan-08 22:29N 46°47' W 091°59'0 0.0
2018-Jan-08 21:56N 46°47' W 091°59'0 0.0
2018-Jan-08 21:29N 46°47' W 091°59'0 0.0
2018-Jan-08 20:59N 46°47' W 091°59'0 0.0
2018-Jan-08 20:29N 46°47' W 091°59'0 0.0
2018-Jan-08 19:59N 46°47' W 091°59'0 0.0
2018-Jan-08 19:29N 46°47' W 091°59'0 0.0
2018-Jan-08 18:59N 46°47' W 091°59'0 0.0
2018-Jan-08 18:29N 46°47' W 091°59'0 0.0
2018-Jan-08 17:59N 46°47' W 091°59'0 0.0
2018-Jan-08 17:29N 46°47' W 091°59'0 0.0
2018-Jan-08 16:59N 46°47' W 091°59'0 0.0
2018-Jan-08 16:29N 46°47' W 091°59'0 0.0
2018-Jan-08 15:59N 46°47' W 091°59'0 0.0
2018-Jan-08 15:29N 46°47' W 091°59'1 2.8
2018-Jan-08 15:00N 46°48' W 092°00'1412.1 250 / 141010.827.0 -1.6
2018-Jan-08 14:59N 46°47' W 091°59'0 0.0
2018-Jan-08 14:29N 46°47' W 091°59'0 0.0
2018-Jan-08 13:59N 46°47' W 091°59'0 0.0
2018-Jan-08 13:29N 46°47' W 091°59'1 2.8
2018-Jan-08 13:00N 46°48' W 092°00'113.2 250 / 181008.427.0 -2.2
2018-Jan-08 12:53N 46°47' W 091°59'0 0.0
2018-Jan-08 12:26N 46°47' W 091°59'0 0.0
2018-Jan-08 11:59N 46°47' W 091°59'0 0.0
2018-Jan-08 11:29N 46°47' W 091°59'0 0.0
2018-Jan-08 10:59N 46°47' W 091°59'0 0.0
2018-Jan-08 10:29N 46°47' W 091°59'0 0.0
2018-Jan-08 09:53N 46°47' W 091°59'0 0.0
2018-Jan-08 09:29N 46°47' W 091°59'0 0.0
2018-Jan-08 08:59N 46°47' W 091°59'0 0.0
2018-Jan-08 08:26N 46°47' W 091°59'0 0.0
2018-Jan-08 07:56N 46°47' W 091°59'0 0.0
2018-Jan-08 07:29N 46°47' W 091°59'0 0.0
2018-Jan-08 06:59N 46°47' W 091°59'0 0.0
2018-Jan-08 06:29N 46°47' W 091°59'0 0.0
2018-Jan-08 05:59N 46°47' W 091°59'0 0.0
2018-Jan-08 05:29N 46°47' W 091°59'0 0.0
2018-Jan-08 04:59N 46°47' W 091°59'0 0.0
2018-Jan-08 04:26N 46°47' W 091°59'0 0.0
2018-Jan-08 03:59N 46°47' W 091°59'0 0.0
2018-Jan-08 03:29N 46°47' W 091°59'1 2.8
2018-Jan-08 03:00N 46°48' W 092°00'1351.4 240 / 131007.410.8 -1.6
2018-Jan-08 02:59N 46°47' W 091°59'0 0.0
2018-Jan-08 02:29N 46°47' W 091°59'0 0.0
2018-Jan-08 01:59N 46°47' W 091°59'0 0.0
2018-Jan-08 01:29N 46°47' W 091°59'1 2.7
2018-Jan-08 01:00N 46°48' W 092°00'1352.5 240 / 141007.410.8 -1.6
2018-Jan-08 00:59N 46°47' W 091°59'0 0.0
2018-Jan-08 00:23N 46°47' W 091°59'0 0.0
2018-Jan-07 23:53N 46°47' W 091°59'0 0.0
2018-Jan-07 23:29N 46°47' W 091°59'0 0.0
2018-Jan-07 22:59N 46°47' W 091°59'0 0.0
2018-Jan-07 22:29N 46°47' W 091°59'0 0.0
2018-Jan-07 21:59N 46°47' W 091°59'0 0.0
2018-Jan-07 21:29N 46°47' W 091°59'0 0.0
2018-Jan-07 20:59N 46°47' W 091°59'0 0.0
2018-Jan-07 20:23N 46°47' W 091°59'0 0.0
2018-Jan-07 19:50N 46°47' W 091°59'0 0.0
2018-Jan-07 19:29N 46°47' W 091°59'0 0.0
2018-Jan-07 18:59N 46°47' W 091°59'0 0.0
2018-Jan-07 18:29N 46°47' W 091°59'0 0.0
2018-Jan-07 17:56N 46°47' W 091°59'0 0.0
2018-Jan-07 17:29N 46°47' W 091°59'0 0.0
2018-Jan-07 16:59N 46°47' W 091°59'0 0.0
2018-Jan-07 16:29N 46°47' W 091°59'0 0.0
2018-Jan-07 15:59N 46°47' W 091°59'0 0.0
2018-Jan-07 15:29N 46°47' W 091°59'1 2.8
2018-Jan-07 15:00N 46°48' W 092°00'1222.4 240 / 181009.110.8 -8.8
2018-Jan-07 14:59N 46°47' W 091°59'0 0.0
2018-Jan-07 14:29N 46°47' W 091°59'0 0.0
2018-Jan-07 13:59N 46°47' W 091°59'0 0.0
2018-Jan-07 13:29N 46°47' W 091°59'0 0.0
2018-Jan-07 12:59N 46°47' W 091°59'0 0.0
2018-Jan-07 12:29N 46°47' W 091°59'0 0.0
2018-Jan-07 11:59N 46°47' W 091°59'0 0.0
2018-Jan-07 11:29N 46°47' W 091°59'0 0.0
2018-Jan-07 10:59N 46°47' W 091°59'0 0.0
2018-Jan-07 10:29N 46°47' W 091°59'0 0.1
2018-Jan-07 09:59N 46°47' W 091°59'0 0.0
2018-Jan-07 09:29N 46°47' W 091°59'0 0.1
2018-Jan-07 08:59N 46°47' W 091°59'0 0.0
2018-Jan-07 08:29N 46°47' W 091°59'0 0.0
2018-Jan-07 07:59N 46°47' W 091°59'0 0.0
2018-Jan-07 07:26N 46°47' W 091°59'0 0.0
2018-Jan-07 06:59N 46°47' W 091°59'0 0.0
2018-Jan-07 06:29N 46°47' W 091°59'0 0.0
2018-Jan-07 05:53N 46°47' W 091°59'0 0.0
2018-Jan-07 05:23N 46°47' W 091°59'0 0.0
2018-Jan-07 04:53N 46°47' W 091°59'0 0.0
2018-Jan-07 04:23N 46°47' W 091°59'0 0.0
2018-Jan-07 03:59N 46°47' W 091°59'0 0.0
2018-Jan-07 03:23N 46°47' W 091°59'1 3.4
2018-Jan-07 03:00N 46°48' W 092°00'123.6 220 / 261017.627.0 -10.5
2018-Jan-07 02:56N 46°47' W 091°59'0 0.0
2018-Jan-07 02:29N 46°47' W 091°59'0 0.0
2018-Jan-07 01:56N 46°47' W 091°59'1 1.5
2018-Jan-07 01:30N 46°47' W 091°58'3 3.4
2018-Jan-07 00:30N 46°49' W 091°54'0 0.6
2018-Jan-07 00:00N 46°49' W 091°54'0 0.6
2018-Jan-06 23:30N 46°49' W 091°54'0 0.2
2018-Jan-06 23:00N 46°48' W 091°54'0 0.0
2018-Jan-06 22:21N 46°48' W 091°54'0 0.0
2018-Jan-06 21:51N 46°48' W 091°54'0 0.0
2018-Jan-06 21:18N 46°48' W 091°54'0 0.0
2018-Jan-06 20:51N 46°48' W 091°54'0 0.0
2018-Jan-06 20:24N 46°48' W 091°54'0 0.1
2018-Jan-06 19:54N 46°48' W 091°54'0 0.1
2018-Jan-06 19:24N 46°48' W 091°54'0 0.0
2018-Jan-06 18:54N 46°48' W 091°54'0 0.0
2018-Jan-06 18:21N 46°48' W 091°54'0 0.8
2018-Jan-06 18:00N 46°49' W 091°54'2 3.9
2018-Jan-06 17:26N 46°46' W 091°55'0 0.4
2018-Jan-06 16:59N 46°46' W 091°55'0 0.3
2018-Jan-06 16:29N 46°46' W 091°55'0 0.4
2018-Jan-06 15:59N 46°46' W 091°55'0 0.2
2018-Jan-06 15:29N 46°46' W 091°55'4 8.3
2018-Jan-06 15:00N 46°42' W 091°54'4386.8 230 / 91035.810.8 -19.4
2018-Jan-06 14:59N 46°46' W 091°55'0 0.3
2018-Jan-06 14:29N 46°46' W 091°56'0 0.3
2018-Jan-06 13:59N 46°46' W 091°56'0 0.3
2018-Jan-06 13:29N 46°46' W 091°56'0 0.3
2018-Jan-06 12:59N 46°45' W 091°56'0 0.3
2018-Jan-06 12:29N 46°45' W 091°56'0 0.3
2018-Jan-06 11:53N 46°45' W 091°57'0 0.3
2018-Jan-06 11:29N 46°45' W 091°57'0 0.3
2018-Jan-06 10:59N 46°45' W 091°57'0 0.3
2018-Jan-06 10:29N 46°45' W 091°57'0 0.3
2018-Jan-06 09:59N 46°45' W 091°57'0 0.3
2018-Jan-06 09:26N 46°45' W 091°57'0 0.2
2018-Jan-06 08:59N 46°45' W 091°57'0 0.1
2018-Jan-06 08:26N 46°45' W 091°57'0 0.1
2018-Jan-06 07:59N 46°45' W 091°57'0 0.1
2018-Jan-06 07:26N 46°45' W 091°58'  

Dump ship's entire track history